Time;durP1;ratioP1;P1;durP2;ratioP2;P2;SDS_P1;SDS_P2;PMS_P1;PMS_P2;Temp;Humidity;BMP_temperature;BMP_pressure;BME280_temperature;BME280_humidity;BME280_pressure;Samples;Min_cycle;Max_cycle;Signal;HPM_P1;HPM_P2
2023/07/27 00:02:56;;;;;;;;;;;;;;;16.33;55.43066;100970.3;;;;-69
2023/07/27 00:07:56;;;;;;;;;;;;;;;16.34;55.45605;100970.9;;;;-69
2023/07/27 00:12:56;;;;;;;;;;;;;;;16.32;55.53125;100959.1;;;;-69
2023/07/27 00:17:56;;;;;;;;;;;;;;;16.35;55.43457;100960.4;;;;-69
2023/07/27 00:22:35;;;;;;;0.2;0;;;;;;;;;;;;;-69
2023/07/27 00:22:56;;;;;;;;;;;;;;;16.34;55.36523;100953.5;;;;-68
2023/07/27 00:27:56;;;;;;;;;;;;;;;16.35;55.36621;100948.5;;;;-68
2023/07/27 00:32:56;;;;;;;;;;;;;;;16.35;55.73926;100940.9;;;;-68
2023/07/27 00:37:56;;;;;;;;;;;;;;;16.37;56.29492;100931.1;;;;-73
2023/07/27 00:42:56;;;;;;;;;;;;;;;16.41;57.19336;100923.2;;;;-72
2023/07/27 00:47:56;;;;;;;;;;;;;;;16.42;57.08008;100915.6;;;;-73
2023/07/27 00:52:38;;;;;;;0.2;0.1;;;;;;;;;;;;;-72
2023/07/27 00:52:56;;;;;;;;;;;;;;;16.47;58.05859;100909.4;;;;-72
2023/07/27 00:57:56;;;;;;;;;;;;;;;16.47;58.71289;100904.4;;;;-71
2023/07/27 01:02:56;;;;;;;;;;;;;;;16.49;58.31055;100897.4;;;;-72
2023/07/27 01:07:56;;;;;;;;;;;;;;;16.49;58.97559;100896.2;;;;-72
2023/07/27 01:12:58;;;;;;;;;;;;;;;16.49;58.69434;100894.2;;;;-71
2023/07/27 01:18:00;;;;;;;;;;;;;;;16.48;60.13672;100886;;;;-72
2023/07/27 01:22:54;;;;;;;0.2;0.1;;;;;;;;;;;;;-71
2023/07/27 01:23:31;;;;;;;;;;;;;;;16.45;59.96289;100882.4;;;;-72
2023/07/27 01:28:03;;;;;;;;;;;;;;;16.42;60.48828;100874.3;;;;-72
2023/07/27 01:32:59;;;;;;;;;;;;;;;16.39;60.21387;100864.1;;;;-71
2023/07/27 01:37:59;;;;;;;;;;;;;;;16.35;60.25391;100864;;;;-71
2023/07/27 01:42:57;;;;;;;;;;;;;;;16.33;60.4209;100861.2;;;;-72
2023/07/27 01:47:57;;;;;;;;;;;;;;;16.28;61.21387;100858.3;;;;-71
2023/07/27 01:52:42;;;;;;;0.3;0.1;;;;;;;;;;;;;-72
2023/07/27 01:52:58;;;;;;;;;;;;;;;16.27;61.54004;100852.2;;;;-70
2023/07/27 01:58:06;;;;;;;;;;;;;;;16.25;61.12012;100846;;;;-74
2023/07/27 02:02:58;;;;;;;;;;;;;;;16.21;61.39648;100836.7;;;;-71
2023/07/27 02:07:56;;;;;;;;;;;;;;;16.17;61.66113;100828.3;;;;-72
2023/07/27 02:13:01;;;;;;;;;;;;;;;16.14;62.37891;100821.7;;;;-72
2023/07/27 02:17:58;;;;;;;;;;;;;;;16.1;62.77734;100814.8;;;;-72
2023/07/27 02:22:45;;;;;;;0.2;0.1;;;;;;;;;;;;;-72
2023/07/27 02:22:58;;;;;;;;;;;;;;;16.04;64.22266;100803.8;;;;-70
2023/07/27 02:27:56;;;;;;;;;;;;;;;16.03;63.09375;100792.4;;;;-71
2023/07/27 02:32:56;;;;;;;;;;;;;;;15.99;63.81055;100785.4;;;;-71
2023/07/27 02:37:56;;;;;;;;;;;;;;;15.95;64.28809;100771.4;;;;-71
2023/07/27 02:42:56;;;;;;;;;;;;;;;15.96;64.7627;100762.6;;;;-72
2023/07/27 02:47:56;;;;;;;;;;;;;;;15.93;64.9043;100752.1;;;;-71
2023/07/27 02:52:49;;;;;;;0.2;0.1;;;;;;;;;;;;;-71
2023/07/27 02:53:04;;;;;;;;;;;;;;;15.9;64.89941;100731.3;;;;-71
2023/07/27 02:58:00;;;;;;;;;;;;;;;15.89;65.25977;100727.3;;;;-72
2023/07/27 03:02:56;;;;;;;;;;;;;;;15.87;65.58008;100717.2;;;;-72
2023/07/27 03:07:56;;;;;;;;;;;;;;;15.85;67.45703;100708.1;;;;-72
2023/07/27 03:12:56;;;;;;;;;;;;;;;15.83;66.4873;100693.3;;;;-71
2023/07/27 03:17:56;;;;;;;;;;;;;;;15.82;66.55176;100686;;;;-71
2023/07/27 03:22:49;;;;;;;0.2;0.1;;;;;;;;;;;;;-72
2023/07/27 03:22:59;;;;;;;;;;;;;;;15.77;67.23047;100675;;;;-72
2023/07/27 03:27:57;;;;;;;;;;;;;;;15.76;67.08301;100659.9;;;;-71
2023/07/27 03:32:56;;;;;;;;;;;;;;;15.75;67.40625;100654.7;;;;-71
2023/07/27 03:37:57;;;;;;;;;;;;;;;15.72;68.34766;100646.2;;;;-69
2023/07/27 03:42:59;;;;;;;;;;;;;;;15.71;68.15527;100640.1;;;;-72
2023/07/27 03:47:56;;;;;;;;;;;;;;;15.69;68.65625;100626.6;;;;-72
2023/07/27 03:52:51;;;;;;;0.2;0;;;;;;;;;;;;;-72
2023/07/27 03:53:01;;;;;;;;;;;;;;;15.64;69.81738;100614.6;;;;-71
2023/07/27 03:57:56;;;;;;;;;;;;;;;15.63;71.0957;100603.5;;;;-72
2023/07/27 04:02:56;;;;;;;;;;;;;;;15.63;70.41309;100593.7;;;;-72
2023/07/27 04:07:56;;;;;;;;;;;;;;;15.61;71.05957;100583.7;;;;-71
2023/07/27 04:12:57;;;;;;;;;;;;;;;15.59;71.06738;100572.8;;;;-72
2023/07/27 04:17:56;;;;;;;;;;;;;;;15.58;71.62793;100572.6;;;;-71
2023/07/27 04:22:53;;;;;;;0.2;0.1;;;;;;;;;;;;;-71
2023/07/27 04:23:03;;;;;;;;;;;;;;;15.58;71.61621;100563.3;;;;-70
2023/07/27 04:27:57;;;;;;;;;;;;;;;15.57;72.15234;100563;;;;-68
2023/07/27 04:32:56;;;;;;;;;;;;;;;15.58;71.80664;100559.4;;;;-70
2023/07/27 04:37:56;;;;;;;;;;;;;;;15.57;73.86816;100557.9;;;;-70
2023/07/27 04:42:56;;;;;;;;;;;;;;;15.58;73.66797;100547.8;;;;-69
2023/07/27 04:47:56;;;;;;;;;;;;;;;15.59;74.86914;100544.5;;;;-70
2023/07/27 04:52:55;;;;;;;0.2;0;;;;;;;;;;;;;-69
2023/07/27 04:53:05;;;;;;;;;;;;;;;15.58;74.78906;100536.1;;;;-71
2023/07/27 04:57:56;;;;;;;;;;;;;;;15.58;74.10645;100520.9;;;;-70
2023/07/27 05:02:56;;;;;;;;;;;;;;;15.58;74.82227;100514.8;;;;-70
2023/07/27 05:07:56;;;;;;;;;;;;;;;15.57;74.12598;100502.3;;;;-70
2023/07/27 05:12:56;;;;;;;;;;;;;;;15.54;75.52246;100493.9;;;;-69
2023/07/27 05:17:59;;;;;;;;;;;;;;;15.52;75.95703;100488.2;;;;-71
2023/07/27 05:22:56;;;;;;;;;;;;;;;15.53;76.6416;100484.3;;;;-71
2023/07/27 05:23:06;;;;;;;0.2;0;;;;;;;;;;;;;-71
2023/07/27 05:27:56;;;;;;;;;;;;;;;15.54;76.72168;100469.1;;;;-72
2023/07/27 05:32:56;;;;;;;;;;;;;;;15.55;77.01465;100467;;;;-70
2023/07/27 05:37:56;;;;;;;;;;;;;;;15.56;76.58105;100468.2;;;;-70
2023/07/27 05:42:56;;;;;;;;;;;;;;;15.58;76.75;100459.9;;;;-71
2023/07/27 05:47:56;;;;;;;;;;;;;;;15.58;78.02734;100444.6;;;;-70
2023/07/27 05:52:56;;;;;;;;;;;;;;;15.6;77.7959;100431.5;;;;-70
2023/07/27 05:53:06;;;;;;;0.2;0;;;;;;;;;;;;;-70
2023/07/27 05:57:56;;;;;;;;;;;;;;;15.61;78.6709;100421.7;;;;-70
2023/07/27 06:02:56;;;;;;;;;;;;;;;15.6;78.72656;100420.4;;;;-69
2023/07/27 06:07:56;;;;;;;;;;;;;;;15.63;78.12891;100419.3;;;;-71
2023/07/27 06:12:56;;;;;;;;;;;;;;;15.66;77.78418;100419.9;;;;-70
2023/07/27 06:17:56;;;;;;;;;;;;;;;15.64;78.77832;100412.1;;;;-69
2023/07/27 06:22:56;;;;;;;;;;;;;;;15.67;79.03125;100404.3;;;;-71
2023/07/27 06:23:06;;;;;;;0.2;0.1;;;;;;;;;;;;;-71
2023/07/27 06:27:56;;;;;;;;;;;;;;;15.71;78.62305;100405.1;;;;-71
2023/07/27 06:32:56;;;;;;;;;;;;;;;15.75;78.96582;100405.4;;;;-69
2023/07/27 06:37:56;;;;;;;;;;;;;;;15.78;78.87109;100406;;;;-70
2023/07/27 06:42:56;;;;;;;;;;;;;;;15.85;77.92871;100411.8;;;;-70
2023/07/27 06:47:56;;;;;;;;;;;;;;;15.89;79.27148;100410.2;;;;-71
2023/07/27 06:52:59;;;;;;;;;;;;;;;15.95;79.57129;100402.3;;;;-71
2023/07/27 06:53:09;;;;;;;0.2;0.1;;;;;;;;;;;;;-71
2023/07/27 06:57:57;;;;;;;;;;;;;;;16;79.83984;100393.6;;;;-71
2023/07/27 07:02:56;;;;;;;;;;;;;;;16.07;79.43652;100377.9;;;;-71
2023/07/27 07:07:56;;;;;;;;;;;;;;;16.14;79.77539;100372.8;;;;-73
2023/07/27 07:12:57;;;;;;;;;;;;;;;16.24;81.08105;100370.1;;;;-72
2023/07/27 07:17:56;;;;;;;;;;;;;;;16.34;82.71484;100366.3;;;;-72
2023/07/27 07:22:56;;;;;;;;;;;;;;;16.42;80.8125;100365.5;;;;-71
2023/07/27 07:23:06;;;;;;;0.2;0.1;;;;;;;;;;;;;-71
2023/07/27 07:27:56;;;;;;;;;;;;;;;16.5;81.67871;100364.2;;;;-72
2023/07/27 07:32:57;;;;;;;;;;;;;;;16.59;81.89648;100353.9;;;;-70
2023/07/27 07:37:56;;;;;;;;;;;;;;;16.69;84.0791;100356;;;;-71
2023/07/27 07:42:56;;;;;;;;;;;;;;;16.78;85.82227;100352.4;;;;-70
2023/07/27 07:47:57;;;;;;;;;;;;;;;16.87;83.72168;100357.6;;;;-70
2023/07/27 07:52:56;;;;;;;;;;;;;;;16.98;84.22461;100356;;;;-71
2023/07/27 07:53:10;;;;;;;0.2;0;;;;;;;;;;;;;-72
2023/07/27 07:57:56;;;;;;;;;;;;;;;17.1;86.5459;100348;;;;-72
2023/07/27 08:02:56;;;;;;;;;;;;;;;17.19;86.6416;100347.2;;;;-69
2023/07/27 08:07:56;;;;;;;;;;;;;;;17.32;88.31543;100342.2;;;;-72
2023/07/27 08:12:57;;;;;;;;;;;;;;;17.43;90.77051;100342.2;;;;-72
2023/07/27 08:17:56;;;;;;;;;;;;;;;17.54;89.07813;100342.6;;;;-71
2023/07/27 08:22:56;;;;;;;;;;;;;;;17.6;91.1084;100340.9;;;;-72
2023/07/27 08:23:09;;;;;;;0.3;0.1;;;;;;;;;;;;;-71
2023/07/27 08:27:56;;;;;;;;;;;;;;;17.77;93.31836;100341.2;;;;-72
2023/07/27 08:32:56;;;;;;;;;;;;;;;17.9;92.71777;100333.9;;;;-70
2023/07/27 08:37:56;;;;;;;;;;;;;;;18.08;92.87695;100330.3;;;;-69
2023/07/27 08:42:59;;;;;;;;;;;;;;;18.12;91.3584;100331.5;;;;-69
2023/07/27 08:47:57;;;;;;;;;;;;;;;18.07;91.60742;100325.4;;;;-69
2023/07/27 08:52:56;;;;;;;;;;;;;;;18.04;92.39844;100323.8;;;;-68
2023/07/27 08:53:12;;;;;;;0.2;0;;;;;;;;;;;;;-69
2023/07/27 08:57:56;;;;;;;;;;;;;;;17.98;91.44238;100324.3;;;;-72
2023/07/27 09:02:56;;;;;;;;;;;;;;;17.93;91.47656;100324.7;;;;-69
2023/07/27 09:08:06;;;;;;;;;;;;;;;17.89;91.18848;100326.6;;;;-69
2023/07/27 09:13:02;;;;;;;;;;;;;;;17.9;91.34961;100326.5;;;;-70
2023/07/27 09:17:58;;;;;;;;;;;;;;;17.95;92.33398;100329.3;;;;-70
2023/07/27 09:22:58;;;;;;;;;;;;;;;17.96;92.2002;100334.8;;;;-71
2023/07/27 09:23:21;;;;;;;0.2;0.1;;;;;;;;;;;;;-71
2023/07/27 09:27:59;;;;;;;;;;;;;;;17.97;92.2041;100339.5;;;;-73
2023/07/27 09:32:58;;;;;;;;;;;;;;;17.98;93.21484;100344.4;;;;-75
2023/07/27 09:37:56;;;;;;;;;;;;;;;18.01;93.06348;100344.5;;;;-75
2023/07/27 09:42:56;;;;;;;;;;;;;;;18.06;94.17383;100343.4;;;;-74
2023/07/27 09:47:56;;;;;;;;;;;;;;;18.18;94.26563;100346.3;;;;-75
2023/07/27 09:52:56;;;;;;;;;;;;;;;18.22;93.55762;100344.6;;;;-76
2023/07/27 09:53:18;;;;;;;0.2;0;;;;;;;;;;;;;-75
2023/07/27 09:57:56;;;;;;;;;;;;;;;18.25;93.85547;100341.9;;;;-76
2023/07/27 10:02:56;;;;;;;;;;;;;;;18.31;93.70898;100342.4;;;;-76
2023/07/27 10:07:56;;;;;;;;;;;;;;;18.39;95.67676;100346.9;;;;-75
2023/07/27 10:12:58;;;;;;;;;;;;;;;18.48;94.56445;100346.3;;;;-74
2023/07/27 10:17:59;;;;;;;;;;;;;;;18.54;94.94629;100346.7;;;;-75
2023/07/27 10:23:09;;;;;;;;;;;;;;;18.63;94.0791;100335.1;;;;-74
2023/07/27 10:23:20;;;;;;;0.2;0.1;;;;;;;;;;;;;-74
2023/07/27 10:28:00;;;;;;;;;;;;;;;18.72;94.57031;100333.5;;;;-74
2023/07/27 10:33:07;;;;;;;;;;;;;;;18.79;94.82129;100332;;;;-75
2023/07/27 10:37:59;;;;;;;;;;;;;;;18.84;94.05664;100339.4;;;;-74
2023/07/27 10:43:02;;;;;;;;;;;;;;;18.87;94.33301;100340.1;;;;-75
2023/07/27 10:47:59;;;;;;;;;;;;;;;18.94;95.07813;100339.6;;;;-75
2023/07/27 10:52:59;;;;;;;;;;;;;;;18.97;95.65723;100340.5;;;;-75
2023/07/27 10:53:22;;;;;;;0.2;0;;;;;;;;;;;;;-73
2023/07/27 10:57:58;;;;;;;;;;;;;;;18.99;96.50293;100334.1;;;;-74
2023/07/27 11:02:56;;;;;;;;;;;;;;;19.12;95.71289;100327.2;;;;-73
2023/07/27 11:08:04;;;;;;;;;;;;;;;19.25;95.59375;100326.5;;;;-75
2023/07/27 11:12:57;;;;;;;;;;;;;;;19.36;95.0332;100329.3;;;;-74
2023/07/27 11:17:57;;;;;;;;;;;;;;;19.45;95.28613;100323;;;;-74
2023/07/27 11:22:57;;;;;;;;;;;;;;;19.49;95.07324;100320.1;;;;-74
2023/07/27 11:23:25;;;;;;;1.2;0.5;;;;;;;;;;;;;-74
2023/07/27 11:27:57;;;;;;;;;;;;;;;19.43;95.94531;100323.2;;;;-74
2023/07/27 11:33:04;;;;;;;;;;;;;;;19.43;96.46289;100321;;;;-74
2023/07/27 11:37:56;;;;;;;;;;;;;;;19.5;97.10742;100322.3;;;;-74
2023/07/27 11:42:56;;;;;;;;;;;;;;;19.63;96.46094;100324.1;;;;-75
2023/07/27 11:48:01;;;;;;;;;;;;;;;19.64;96.31836;100328.2;;;;-74
2023/07/27 11:53:02;;;;;;;;;;;;;;;19.61;95.77051;100327.9;;;;-73
2023/07/27 11:53:30;;;;;;;0.2;0;;;;;;;;;;;;;-75
2023/07/27 11:57:58;;;;;;;;;;;;;;;19.59;95.2832;100325.3;;;;-71
2023/07/27 12:02:57;;;;;;;;;;;;;;;19.62;95.41504;100325.2;;;;-71
2023/07/27 12:07:58;;;;;;;;;;;;;;;19.73;95.74023;100314.2;;;;-72
2023/07/27 12:13:03;;;;;;;;;;;;;;;19.8;94.47266;100317.6;;;;-71
2023/07/27 12:17:59;;;;;;;;;;;;;;;19.85;94.83105;100316.5;;;;-73
2023/07/27 12:22:56;;;;;;;;;;;;;;;19.8;95.2832;100325;;;;-73
2023/07/27 12:23:32;;;;;;;0.2;0.1;;;;;;;;;;;;;-72
2023/07/27 12:27:56;;;;;;;;;;;;;;;19.77;95.83984;100321.2;;;;-71
2023/07/27 12:32:56;;;;;;;;;;;;;;;19.81;95.63574;100320.3;;;;-71
2023/07/27 12:37:57;;;;;;;;;;;;;;;19.83;95.68262;100322.9;;;;-71
2023/07/27 12:42:57;;;;;;;;;;;;;;;19.81;95.08398;100320.4;;;;-70
2023/07/27 12:47:56;;;;;;;;;;;;;;;19.76;95.2168;100321.4;;;;-71
2023/07/27 12:52:56;;;;;;;;;;;;;;;19.7;95.53223;100327.4;;;;-72
2023/07/27 12:53:34;;;;;;;0.2;0;;;;;;;;;;;;;-71
2023/07/27 12:57:58;;;;;;;;;;;;;;;19.71;96.65625;100315.8;;;;-71
2023/07/27 13:02:56;;;;;;;;;;;;;;;19.76;96.98242;100320.6;;;;-71
2023/07/27 13:07:56;;;;;;;;;;;;;;;19.79;95.55078;100319.5;;;;-71
2023/07/27 13:12:56;;;;;;;;;;;;;;;19.81;95.84961;100324.3;;;;-72
2023/07/27 13:17:56;;;;;;;;;;;;;;;19.81;95.61328;100322.5;;;;-69
2023/07/27 13:22:56;;;;;;;;;;;;;;;19.8;96.73438;100329.6;;;;-71
2023/07/27 13:23:37;;;;;;;0.3;0.1;;;;;;;;;;;;;-71
2023/07/27 13:27:56;;;;;;;;;;;;;;;19.86;96.4873;100332.5;;;;-71
2023/07/27 13:32:56;;;;;;;;;;;;;;;19.92;96.83887;100334.1;;;;-72
2023/07/27 13:37:56;;;;;;;;;;;;;;;19.89;97.4375;100338.5;;;;-72
2023/07/27 13:42:56;;;;;;;;;;;;;;;19.85;97.78027;100338.7;;;;-73
2023/07/27 13:47:56;;;;;;;;;;;;;;;19.84;97.19141;100334.9;;;;-72
2023/07/27 13:52:56;;;;;;;;;;;;;;;19.85;97.01367;100345.4;;;;-71
2023/07/27 13:53:40;;;;;;;0.2;0.1;;;;;;;;;;;;;-71
2023/07/27 13:57:56;;;;;;;;;;;;;;;19.87;97.23145;100338.4;;;;-73
2023/07/27 14:02:56;;;;;;;;;;;;;;;19.85;96.70117;100346.1;;;;-72
2023/07/27 14:07:56;;;;;;;;;;;;;;;19.82;97.49121;100352;;;;-72
2023/07/27 14:12:59;;;;;;;;;;;;;;;19.79;97.71973;100340;;;;-71
2023/07/27 14:17:56;;;;;;;;;;;;;;;19.8;97.91504;100344.4;;;;-71
2023/07/27 14:22:56;;;;;;;;;;;;;;;19.81;98.63574;100337.2;;;;-72
2023/07/27 14:23:44;;;;;;;0.2;0;;;;;;;;;;;;;-70
2023/07/27 14:27:56;;;;;;;;;;;;;;;19.82;98.95508;100344.3;;;;-70
2023/07/27 14:32:56;;;;;;;;;;;;;;;19.87;98.41406;100346.3;;;;-72
2023/07/27 14:37:56;;;;;;;;;;;;;;;19.89;99.17969;100343;;;;-73
2023/07/27 14:42:57;;;;;;;;;;;;;;;19.87;98.63867;100347.3;;;;-69
2023/07/27 14:47:56;;;;;;;;;;;;;;;19.84;98.22559;100351.5;;;;-72
2023/07/27 14:52:56;;;;;;;;;;;;;;;19.81;98.50098;100354.3;;;;-72
2023/07/27 14:53:49;;;;;;;0.2;0;;;;;;;;;;;;;-72
2023/07/27 14:57:56;;;;;;;;;;;;;;;19.81;98.71484;100353.4;;;;-73
2023/07/27 15:02:56;;;;;;;;;;;;;;;19.83;98.49414;100355.6;;;;-71
2023/07/27 15:07:57;;;;;;;;;;;;;;;19.76;97.55566;100361.4;;;;-72
2023/07/27 15:12:58;;;;;;;;;;;;;;;19.73;99.66309;100353.1;;;;-72
2023/07/27 15:17:56;;;;;;;;;;;;;;;19.72;99.68555;100353.5;;;;-72
2023/07/27 15:22:57;;;;;;;;;;;;;;;19.78;98.80957;100363.3;;;;-72
2023/07/27 15:23:49;;;;;;;1.8;0.5;;;;;;;;;;;;;-71
2023/07/27 15:27:58;;;;;;;;;;;;;;;19.75;99.96973;100364.4;;;;-71
2023/07/27 15:32:56;;;;;;;;;;;;;;;19.67;99.41504;100342.8;;;;-72
2023/07/27 15:37:56;;;;;;;;;;;;;;;19.64;98.94824;100351.8;;;;-70
2023/07/27 15:42:56;;;;;;;;;;;;;;;19.58;98.98828;100348.5;;;;-71
2023/07/27 15:47:56;;;;;;;;;;;;;;;19.52;98.70898;100356.5;;;;-71
2023/07/27 15:52:56;;;;;;;;;;;;;;;19.46;99.05176;100355.3;;;;-71
2023/07/27 15:53:52;;;;;;;0.2;0;;;;;;;;;;;;;-72
2023/07/27 15:57:56;;;;;;;;;;;;;;;19.45;97.73828;100350.5;;;;-70
2023/07/27 16:02:56;;;;;;;;;;;;;;;19.46;97.84082;100356.7;;;;-70
2023/07/27 16:07:57;;;;;;;;;;;;;;;19.45;97.73828;100348.1;;;;-71
2023/07/27 16:12:56;;;;;;;;;;;;;;;19.45;97.96289;100350.9;;;;-70
2023/07/27 16:17:56;;;;;;;;;;;;;;;19.48;97.22559;100348.6;;;;-70
2023/07/27 16:22:56;;;;;;;;;;;;;;;19.47;97.23633;100350.9;;;;-71
2023/07/27 16:24:01;;;;;;;0.2;0.1;;;;;;;;;;;;;-70
2023/07/27 16:27:56;;;;;;;;;;;;;;;19.39;98.84668;100352.3;;;;-71
2023/07/27 16:32:56;;;;;;;;;;;;;;;19.35;98.5918;100352.2;;;;-70
2023/07/27 16:37:56;;;;;;;;;;;;;;;19.31;98.46973;100345.5;;;;-72
2023/07/27 16:42:56;;;;;;;;;;;;;;;19.27;98.6416;100343.1;;;;-71
2023/07/27 16:47:56;;;;;;;;;;;;;;;19.24;98.32129;100352.4;;;;-72
2023/07/27 16:52:56;;;;;;;;;;;;;;;19.2;98.45703;100360.6;;;;-71
2023/07/27 16:53:58;;;;;;;0.3;0.1;;;;;;;;;;;;;-73
2023/07/27 16:57:56;;;;;;;;;;;;;;;19.16;99.03223;100361.7;;;;-70
2023/07/27 17:02:56;;;;;;;;;;;;;;;19.18;97.45215;100354.3;;;;-71
2023/07/27 17:07:56;;;;;;;;;;;;;;;19.16;98.60645;100344;;;;-71
2023/07/27 17:12:56;;;;;;;;;;;;;;;19.19;98.23047;100345.2;;;;-72
2023/07/27 17:17:56;;;;;;;;;;;;;;;19.26;96.87598;100350.9;;;;-72
2023/07/27 17:22:56;;;;;;;;;;;;;;;19.25;97.05371;100363.8;;;;-70
2023/07/27 17:24:00;;;;;;;0.2;0;;;;;;;;;;;;;-71
2023/07/27 17:27:56;;;;;;;;;;;;;;;19.22;98.87598;100360.7;;;;-71
2023/07/27 17:32:56;;;;;;;;;;;;;;;19.17;98.16797;100365.3;;;;-70
2023/07/27 17:37:56;;;;;;;;;;;;;;;19.16;98.2002;100365.8;;;;-71
2023/07/27 17:42:56;;;;;;;;;;;;;;;19.12;98.90039;100371.7;;;;-71
2023/07/27 17:47:56;;;;;;;;;;;;;;;19.09;97.72559;100370.6;;;;-72
2023/07/27 17:52:56;;;;;;;;;;;;;;;19.09;97.06348;100383.1;;;;-70
2023/07/27 17:54:03;;;;;;;0.2;0;;;;;;;;;;;;;-71
2023/07/27 17:57:56;;;;;;;;;;;;;;;19.06;98.34668;100365.2;;;;-70
2023/07/27 18:02:56;;;;;;;;;;;;;;;19.09;97.9502;100375.2;;;;-72
2023/07/27 18:08:05;;;;;;;;;;;;;;;19.11;97.9209;100365.7;;;;-71
2023/07/27 18:12:56;;;;;;;;;;;;;;;19.12;96.42969;100376.9;;;;-69
2023/07/27 18:17:59;;;;;;;;;;;;;;;19.11;95.02344;100375;;;;-71
2023/07/27 18:22:56;;;;;;;;;;;;;;;19.08;95.90527;100383.1;;;;-70
2023/07/27 18:24:06;;;;;;;0.2;0;;;;;;;;;;;;;-72
2023/07/27 18:27:59;;;;;;;;;;;;;;;19.01;95.48535;100388.4;;;;-72
2023/07/27 18:32:57;;;;;;;;;;;;;;;19.02;94.73438;100398.3;;;;-71
2023/07/27 18:37:59;;;;;;;;;;;;;;;18.97;96.80176;100389.9;;;;-71
2023/07/27 18:42:56;;;;;;;;;;;;;;;18.93;95.88281;100391;;;;-68
2023/07/27 18:48:01;;;;;;;;;;;;;;;18.91;96.64258;100399.3;;;;-68
2023/07/27 18:52:56;;;;;;;;;;;;;;;18.87;96.19727;100391.6;;;;-68
2023/07/27 18:54:11;;;;;;;0.2;0;;;;;;;;;;;;;-69
2023/07/27 18:57:59;;;;;;;;;;;;;;;18.86;95.97949;100388.3;;;;-69
2023/07/27 19:02:56;;;;;;;;;;;;;;;18.84;96.29004;100393.5;;;;-68
2023/07/27 19:07:59;;;;;;;;;;;;;;;18.81;97.5498;100397.4;;;;-72
2023/07/27 19:12:56;;;;;;;;;;;;;;;18.77;96.61328;100402.7;;;;-68
2023/07/27 19:17:59;;;;;;;;;;;;;;;18.75;97.60742;100405.6;;;;-67
2023/07/27 19:22:56;;;;;;;;;;;;;;;18.72;97.67969;100409;;;;-67
2023/07/27 19:24:12;;;;;;;0.2;0;;;;;;;;;;;;;-67
2023/07/27 19:27:56;;;;;;;;;;;;;;;18.7;98.70508;100407.7;;;;-68
2023/07/27 19:32:56;;;;;;;;;;;;;;;18.68;97.81543;100415.5;;;;-69
2023/07/27 19:37:56;;;;;;;;;;;;;;;18.67;97.22852;100409.3;;;;-69
2023/07/27 19:42:56;;;;;;;;;;;;;;;18.66;98.10156;100421.3;;;;-69
2023/07/27 19:47:57;;;;;;;;;;;;;;;18.64;99.24219;100425.1;;;;-68
2023/07/27 19:52:57;;;;;;;;;;;;;;;18.63;98.7793;100424.3;;;;-67
2023/07/27 19:54:14;;;;;;;0.3;0.1;;;;;;;;;;;;;-69
2023/07/27 19:57:56;;;;;;;;;;;;;;;18.61;98.81934;100419.4;;;;-68
2023/07/27 20:02:57;;;;;;;;;;;;;;;18.59;96.91016;100417.5;;;;-68
2023/07/27 20:07:56;;;;;;;;;;;;;;;18.58;97.40137;100425.5;;;;-70
2023/07/27 20:12:57;;;;;;;;;;;;;;;18.58;96.95313;100424.8;;;;-67
2023/07/27 20:17:56;;;;;;;;;;;;;;;18.56;99.74902;100427.4;;;;-68
2023/07/27 20:22:56;;;;;;;;;;;;;;;18.55;97.05859;100427.4;;;;-69
2023/07/27 20:24:17;;;;;;;0.2;0;;;;;;;;;;;;;-69
2023/07/27 20:27:56;;;;;;;;;;;;;;;18.54;97.30176;100434.7;;;;-69
2023/07/27 20:32:56;;;;;;;;;;;;;;;18.5;98.32715;100428.2;;;;-69
2023/07/27 20:37:56;;;;;;;;;;;;;;;18.5;97.45313;100420.5;;;;-69
2023/07/27 20:42:56;;;;;;;;;;;;;;;18.49;97.04492;100421.5;;;;-69
2023/07/27 20:47:57;;;;;;;;;;;;;;;18.48;97.69336;100422.4;;;;-69
2023/07/27 20:52:56;;;;;;;;;;;;;;;18.48;96.95313;100424.9;;;;-68
2023/07/27 20:54:22;;;;;;;0.2;0;;;;;;;;;;;;;-68
2023/07/27 20:57:57;;;;;;;;;;;;;;;18.46;97.46289;100427.8;;;;-69
2023/07/27 21:02:56;;;;;;;;;;;;;;;18.45;97.38281;100429.6;;;;-68
2023/07/27 21:07:56;;;;;;;;;;;;;;;18.44;97.2373;100431.9;;;;-69
2023/07/27 21:12:56;;;;;;;;;;;;;;;18.41;97.20898;100432.7;;;;-68
2023/07/27 21:17:56;;;;;;;;;;;;;;;18.41;97.4082;100430.5;;;;-69
2023/07/27 21:22:56;;;;;;;;;;;;;;;18.4;96.91309;100442.1;;;;-68
2023/07/27 21:24:22;;;;;;;0.2;0;;;;;;;;;;;;;-68
2023/07/27 21:27:56;;;;;;;;;;;;;;;18.39;97.68457;100440;;;;-68
2023/07/27 21:32:56;;;;;;;;;;;;;;;18.39;97.52832;100445.7;;;;-69
2023/07/27 21:37:56;;;;;;;;;;;;;;;18.38;97.44727;100440.6;;;;-69
2023/07/27 21:42:57;;;;;;;;;;;;;;;18.38;97.04395;100433.1;;;;-68
2023/07/27 21:47:56;;;;;;;;;;;;;;;18.38;97.25684;100425.2;;;;-69
2023/07/27 21:52:56;;;;;;;;;;;;;;;18.37;97.0752;100427;;;;-67
2023/07/27 21:54:24;;;;;;;0.2;0.1;;;;;;;;;;;;;-69
2023/07/27 21:57:56;;;;;;;;;;;;;;;18.36;97.27539;100430.2;;;;-70
2023/07/27 22:02:56;;;;;;;;;;;;;;;18.37;98.26367;100426.5;;;;-69
2023/07/27 22:07:59;;;;;;;;;;;;;;;18.37;98.12891;100431.5;;;;-69
2023/07/27 22:12:56;;;;;;;;;;;;;;;18.36;97.48633;100430.8;;;;-69
2023/07/27 22:17:56;;;;;;;;;;;;;;;18.36;97.56641;100440.3;;;;-69
2023/07/27 22:22:57;;;;;;;;;;;;;;;18.36;97.8916;100455;;;;-69
2023/07/27 22:24:27;;;;;;;0.2;0.1;;;;;;;;;;;;;-71
2023/07/27 22:27:56;;;;;;;;;;;;;;;18.35;97.87891;100447.1;;;;-71
2023/07/27 22:32:56;;;;;;;;;;;;;;;18.34;98.5127;100447.3;;;;-70
2023/07/27 22:37:56;;;;;;;;;;;;;;;18.31;97.55469;100449.5;;;;-69
2023/07/27 22:42:56;;;;;;;;;;;;;;;18.3;98.29395;100439.9;;;;-69
2023/07/27 22:47:56;;;;;;;;;;;;;;;18.29;98.80371;100439.7;;;;-69
2023/07/27 22:52:56;;;;;;;;;;;;;;;18.28;99.6875;100443.4;;;;-70
2023/07/27 22:54:30;;;;;;;0.2;0.1;;;;;;;;;;;;;-69
2023/07/27 22:57:56;;;;;;;;;;;;;;;18.26;99.15723;100445.2;;;;-69
2023/07/27 23:02:57;;;;;;;;;;;;;;;18.26;99.54785;100437;;;;-69
2023/07/27 23:07:56;;;;;;;;;;;;;;;18.26;99.81641;100444.3;;;;-70
2023/07/27 23:12:56;;;;;;;;;;;;;;;18.23;99.31738;100446.5;;;;-69
2023/07/27 23:17:59;;;;;;;;;;;;;;;18.26;100;100452;;;;-70
2023/07/27 23:22:56;;;;;;;;;;;;;;;18.24;99.75781;100449.1;;;;-72
2023/07/27 23:24:32;;;;;;;0.2;0;;;;;;;;;;;;;-69
2023/07/27 23:27:56;;;;;;;;;;;;;;;18.26;99.81641;100447.7;;;;-72
2023/07/27 23:32:56;;;;;;;;;;;;;;;18.24;100;100449.7;;;;-72
2023/07/27 23:37:56;;;;;;;;;;;;;;;18.24;99.87891;100448.4;;;;-73
2023/07/27 23:42:56;;;;;;;;;;;;;;;18.24;99.73633;100444.5;;;;-71
2023/07/27 23:47:56;;;;;;;;;;;;;;;18.22;99.27246;100448.1;;;;-71
2023/07/27 23:52:56;;;;;;;;;;;;;;;18.24;99.35547;100456.9;;;;-72
2023/07/27 23:54:34;;;;;;;0.2;0.1;;;;;;;;;;;;;-72
2023/07/27 23:57:56;;;;;;;;;;;;;;;18.24;100;100457.5;;;;-70
